Time;durP1;ratioP1;P1;durP2;ratioP2;P2;SDS_P1;SDS_P2;PMS_P1;PMS_P2;Temp;Humidity;BMP_temperature;BMP_pressure;BME280_temperature;BME280_humidity;BME280_pressure;Samples;Min_cycle;Max_cycle;Signal;HPM_P1;HPM_P2
2022/07/01 00:01:07;;;;;;;6.80;0.70;;;15.80;99.90;;;;;;5059992;28;20036;-65
2022/07/01 00:03:34;;;;;;;3.53;0.57;;;15.80;99.90;;;;;;5058900;28;20040;-65
2022/07/01 00:05:59;;;;;;;2.45;0.50;;;15.80;99.90;;;;;;5057468;28;20058;-65
2022/07/01 00:08:25;;;;;;;2.85;0.52;;;15.80;99.90;;;;;;5072483;28;20040;-65
2022/07/01 00:10:51;;;;;;;2.50;0.50;;;15.80;99.90;;;;;;5073324;28;20038;-65
2022/07/01 00:13:16;;;;;;;2.92;0.52;;;15.80;99.90;;;;;;5075513;28;20043;-65
2022/07/01 00:15:42;;;;;;;4.25;0.50;;;15.90;99.90;;;;;;5073288;28;20048;-65
2022/07/01 00:18:07;;;;;;;3.13;0.43;;;15.90;99.90;;;;;;5073483;28;20398;-65
2022/07/01 00:20:33;;;;;;;1.88;0.60;;;15.90;99.90;;;;;;5056264;28;20083;-65
2022/07/01 00:22:59;;;;;;;3.65;0.68;;;16.00;99.90;;;;;;5074435;28;21196;-65
2022/07/01 00:25:24;;;;;;;2.45;0.50;;;16.00;99.90;;;;;;5057267;28;20040;-65
2022/07/01 00:27:50;;;;;;;7.22;0.60;;;16.00;99.90;;;;;;5071580;28;20040;-65
2022/07/01 00:30:15;;;;;;;2.47;0.40;;;16.00;99.90;;;;;;5074687;28;20044;-65
2022/07/01 00:32:41;;;;;;;2.22;0.60;;;16.00;99.90;;;;;;5053467;28;20062;-65
2022/07/01 00:35:09;;;;;;;3.38;0.35;;;16.00;99.90;;;;;;5058045;28;20055;-65
2022/07/01 00:37:34;;;;;;;3.47;0.40;;;16.00;99.90;;;;;;5061190;28;20048;-65
2022/07/01 00:40:00;;;;;;;2.00;0.40;;;16.00;99.90;;;;;;5057744;28;20086;-65
2022/07/01 00:42:25;;;;;;;2.92;0.45;;;16.00;99.90;;;;;;5058424;28;20555;-65
2022/07/01 00:44:51;;;;;;;2.15;0.30;;;16.00;99.90;;;;;;5074620;28;20043;-65
2022/07/01 00:47:17;;;;;;;2.95;0.30;;;16.00;99.90;;;;;;5044991;28;20036;-65
2022/07/01 00:49:42;;;;;;;1.77;0.30;;;16.00;99.90;;;;;;5056010;28;20437;-65
2022/07/01 00:52:09;;;;;;;0.60;0.20;;;16.00;99.90;;;;;;5075880;28;20389;-65
2022/07/01 00:54:37;;;;;;;6.07;0.30;;;16.00;99.90;;;;;;5075740;28;20398;-65
2022/07/01 00:57:10;;;;;;;0.95;0.20;;;16.00;99.90;;;;;;5077612;28;20045;-65
2022/07/01 00:59:38;;;;;;;2.20;0.20;;;16.00;99.90;;;;;;5074167;28;20535;-65
2022/07/01 01:02:05;;;;;;;1.27;0.28;;;15.90;99.90;;;;;;5073449;28;20105;-65
2022/07/01 01:04:32;;;;;;;0.82;0.28;;;16.00;99.90;;;;;;5071838;28;20090;-65
2022/07/01 01:07:00;;;;;;;0.90;0.65;;;15.90;99.90;;;;;;5054603;28;20136;-65
2022/07/01 01:09:25;;;;;;;1.50;0.40;;;15.90;99.90;;;;;;5076557;28;20032;-66
2022/07/01 01:11:51;;;;;;;1.40;0.20;;;15.90;99.90;;;;;;5072130;28;20039;-66
2022/07/01 01:14:16;;;;;;;0.47;0.15;;;15.80;99.90;;;;;;5074712;28;20394;-65
2022/07/01 01:16:42;;;;;;;0.77;0.20;;;15.80;99.90;;;;;;5050973;28;20557;-65
2022/07/01 01:19:07;;;;;;;0.57;0.20;;;15.80;99.90;;;;;;5075686;28;20035;-65
2022/07/01 01:21:34;;;;;;;3.50;0.20;;;15.70;99.90;;;;;;5078633;28;20073;-65
2022/07/01 01:24:43;;;;;;;;;;;;;;;;;;;;;
2022/07/01 01:27:30;;;;;;;1.95;0.30;;;15.70;99.90;;;;;;4995269;28;20049;-66
2022/07/01 01:29:55;;;;;;;3.20;0.50;;;15.60;99.90;;;;;;5054156;28;20036;-66
2022/07/01 01:32:21;;;;;;;1.17;0.22;;;15.60;99.90;;;;;;5074950;28;20405;-65
2022/07/01 01:34:47;;;;;;;1.98;0.30;;;15.60;99.90;;;;;;5057028;28;20036;-65
2022/07/01 01:37:12;;;;;;;0.80;0.20;;;15.60;99.90;;;;;;5060039;28;20086;-66
2022/07/01 01:39:38;;;;;;;2.78;0.30;;;15.60;99.90;;;;;;5052552;28;20048;-66
2022/07/01 01:42:05;;;;;;;2.08;0.40;;;15.60;99.90;;;;;;5071571;28;20060;-65
2022/07/01 01:44:31;;;;;;;1.13;0.30;;;15.60;99.90;;;;;;5074073;28;20048;-65
2022/07/01 01:46:57;;;;;;;1.80;0.35;;;15.60;99.90;;;;;;5055816;28;20104;-66
2022/07/01 01:49:22;;;;;;;1.75;0.30;;;15.50;99.90;;;;;;5073747;28;20044;-66
2022/07/01 01:51:48;;;;;;;1.40;0.45;;;15.70;99.90;;;;;;5056943;28;20033;-66
2022/07/01 01:54:14;;;;;;;1.20;0.38;;;15.50;99.90;;;;;;5061018;28;20063;-66
2022/07/01 01:56:39;;;;;;;1.05;0.30;;;15.50;99.90;;;;;;5041706;28;20036;-66
2022/07/01 01:59:05;;;;;;;4.47;0.38;;;15.60;99.90;;;;;;5055666;28;20149;-66
2022/07/01 02:01:31;;;;;;;0.88;0.40;;;15.60;99.90;;;;;;5070061;28;20109;-66
2022/07/01 02:03:58;;;;;;;1.08;0.45;;;15.60;99.90;;;;;;5072655;28;20063;-66
2022/07/01 02:06:24;;;;;;;1.88;0.52;;;15.60;99.90;;;;;;5055117;28;20037;-66
2022/07/01 02:08:50;;;;;;;1.38;0.40;;;15.60;99.90;;;;;;5071075;28;20462;-66
2022/07/01 02:11:15;;;;;;;1.20;0.40;;;15.60;99.90;;;;;;5052628;28;20047;-65
2022/07/01 02:13:41;;;;;;;1.65;0.32;;;15.60;99.90;;;;;;5075059;28;20135;-65
2022/07/01 02:16:07;;;;;;;1.15;0.50;;;15.70;99.90;;;;;;5059290;28;20036;-65
2022/07/01 02:18:32;;;;;;;1.70;0.60;;;15.70;99.90;;;;;;5061672;28;20057;-66
2022/07/01 02:20:59;;;;;;;2.03;0.50;;;15.60;99.90;;;;;;5075346;28;20071;-66
2022/07/01 02:23:24;;;;;;;1.85;0.60;;;15.60;99.90;;;;;;5077515;28;20928;-66
2022/07/01 02:25:50;;;;;;;2.28;0.60;;;15.60;99.90;;;;;;5062389;28;20029;-66
2022/07/01 02:28:16;;;;;;;1.55;0.70;;;15.60;99.90;;;;;;5075985;28;20026;-66
2022/07/01 02:30:42;;;;;;;1.67;0.70;;;15.60;99.90;;;;;;5061557;28;20044;-66
2022/07/01 02:33:08;;;;;;;2.15;0.73;;;15.60;99.90;;;;;;5058702;28;20157;-66
2022/07/01 02:35:38;;;;;;;2.25;1.05;;;15.60;99.90;;;;;;5079945;28;21295;-65
2022/07/01 02:38:04;;;;;;;3.97;0.60;;;15.60;99.90;;;;;;5076425;28;20470;-65
2022/07/01 02:40:30;;;;;;;1.58;0.80;;;15.60;99.90;;;;;;5065355;28;20036;-65
2022/07/01 02:42:55;;;;;;;3.15;0.98;;;15.60;99.90;;;;;;5075240;28;20052;-66
2022/07/01 02:45:21;;;;;;;1.38;1.15;;;15.60;99.90;;;;;;5061265;28;20048;-65
2022/07/01 02:47:47;;;;;;;1.60;1.10;;;15.60;99.90;;;;;;5074240;28;20040;-65
2022/07/01 02:50:13;;;;;;;2.65;1.25;;;15.60;99.90;;;;;;5075126;28;20028;-65
2022/07/01 02:52:40;;;;;;;3.05;1.10;;;15.60;99.90;;;;;;5062481;28;20400;-65
2022/07/01 02:55:09;;;;;;;1.70;1.30;;;15.60;99.90;;;;;;5075358;28;20048;-65
2022/07/01 02:57:35;;;;;;;2.72;1.35;;;15.60;99.90;;;;;;5080919;28;20032;-65
2022/07/01 03:00:01;;;;;;;3.97;2.72;;;15.60;99.90;;;;;;5076459;28;20044;-65
2022/07/01 03:02:27;;;;;;;3.30;2.10;;;15.50;99.90;;;;;;5078658;28;20505;-65
2022/07/01 03:04:53;;;;;;;2.88;2.30;;;15.60;99.90;;;;;;5072327;28;20048;-65
2022/07/01 03:07:21;;;;;;;4.07;2.15;;;15.60;99.90;;;;;;5065021;28;20123;-65
2022/07/01 03:09:46;;;;;;;4.32;2.40;;;15.60;99.90;;;;;;5062319;28;20062;-65
2022/07/01 03:12:25;;;;;;;3.08;2.78;;;15.60;99.90;;;;;;5080846;28;20035;-66
2022/07/01 03:15:07;;;;;;;3.50;3.20;;;15.50;99.90;;;;;;5075769;28;20383;-65
2022/07/01 03:17:36;;;;;;;5.65;3.20;;;15.50;99.90;;;;;;5075212;28;20054;-65
2022/07/01 03:20:04;;;;;;;3.33;3.00;;;15.50;99.90;;;;;;5075428;28;20135;-65
2022/07/01 03:22:30;;;;;;;3.85;3.13;;;15.50;99.90;;;;;;5063671;28;20469;-65
2022/07/01 03:24:57;;;;;;;3.60;3.30;;;15.50;99.90;;;;;;5073051;28;20441;-66
2022/07/01 03:27:23;;;;;;;5.10;3.72;;;15.50;99.90;;;;;;5060002;28;20040;-65
2022/07/01 03:29:50;;;;;;;11.32;4.68;;;15.50;99.90;;;;;;5055794;28;20039;-65
2022/07/01 03:32:15;;;;;;;5.05;4.40;;;15.50;99.90;;;;;;5063631;28;20084;-66
2022/07/01 03:34:43;;;;;;;5.28;4.22;;;15.50;99.90;;;;;;5060617;28;20048;-65
2022/07/01 03:37:10;;;;;;;5.80;5.15;;;15.50;99.90;;;;;;5073800;28;20044;-65
2022/07/01 03:39:37;;;;;;;7.13;5.55;;;15.50;99.90;;;;;;5046324;28;20032;-65
2022/07/01 03:42:04;;;;;;;7.90;6.28;;;15.50;99.90;;;;;;5062581;28;20048;-65
2022/07/01 03:44:30;;;;;;;7.30;6.53;;;15.50;99.90;;;;;;5061863;28;20054;-65
2022/07/01 03:46:56;;;;;;;6.43;5.82;;;15.50;99.90;;;;;;5058692;28;20048;-65
2022/07/01 03:49:22;;;;;;;8.88;7.20;;;15.50;99.90;;;;;;5057741;28;20044;-65
2022/07/01 03:51:48;;;;;;;9.75;7.05;;;15.50;99.90;;;;;;5060864;28;20070;-65
2022/07/01 03:57:06;;;;;;;8.93;7.28;;;15.60;99.90;;;;;;5073105;28;20052;-65
2022/07/01 03:59:35;;;;;;;8.38;7.47;;;15.60;99.90;;;;;;5071822;28;20047;-65
2022/07/01 04:02:00;;;;;;;9.02;7.97;;;15.60;99.90;;;;;;5076023;28;20048;-65
2022/07/01 04:04:27;;;;;;;20.42;9.95;;;15.60;99.90;;;;;;5078499;28;20036;-65
2022/07/01 04:06:57;;;;;;;10.73;9.57;;;15.60;99.90;;;;;;5058476;28;20135;-65
2022/07/01 04:09:24;;;;;;;14.07;11.30;;;15.60;99.90;;;;;;5059208;28;20505;-65
2022/07/01 04:11:50;;;;;;;12.48;11.20;;;15.60;99.90;;;;;;5073154;28;20042;-65
2022/07/01 04:14:16;;;;;;;16.08;13.40;;;15.60;99.90;;;;;;5076806;28;20032;-65
2022/07/01 04:16:43;;;;;;;16.67;13.70;;;15.60;99.90;;;;;;5071016;28;20058;-65
2022/07/01 04:19:09;;;;;;;17.60;15.15;;;15.50;99.90;;;;;;5073990;28;20078;-65
2022/07/01 04:24:19;;;;;;;21.65;18.20;;;15.60;99.90;;;;;;5073540;28;20044;-65
2022/07/01 04:26:45;;;;;;;19.67;17.05;;;15.60;99.90;;;;;;5053675;28;20040;-65
2022/07/01 04:29:10;;;;;;;19.90;17.80;;;15.60;99.90;;;;;;5056235;28;20038;-67
2022/07/01 04:31:37;;;;;;;19.27;17.40;;;15.50;99.90;;;;;;5073488;28;20036;-67
2022/07/01 04:34:04;;;;;;;21.98;19.52;;;15.60;99.90;;;;;;5074138;28;20048;-67
2022/07/01 04:36:30;;;;;;;21.27;18.95;;;15.60;99.90;;;;;;5072481;28;20047;-67
2022/07/01 04:38:56;;;;;;;22.25;19.17;;;15.50;99.90;;;;;;5053294;28;20056;-67
2022/07/01 04:44:06;;;;;;;22.88;20.50;;;15.60;99.90;;;;;;5056454;28;20056;-67
2022/07/01 04:46:32;;;;;;;24.15;21.73;;;15.60;99.90;;;;;;5077058;28;20481;-67
2022/07/01 04:48:57;;;;;;;23.38;21.00;;;15.50;99.90;;;;;;5053740;28;20085;-67
2022/07/01 04:51:23;;;;;;;23.25;20.77;;;15.50;99.90;;;;;;5071602;28;20036;-67
2022/07/01 04:53:49;;;;;;;23.15;20.90;;;15.50;99.90;;;;;;5081124;28;20040;-67
2022/07/01 04:56:15;;;;;;;23.08;20.63;;;15.50;99.90;;;;;;5084457;28;20465;-67
2022/07/01 04:58:41;;;;;;;22.80;20.20;;;15.60;99.90;;;;;;5065277;28;20119;-67
2022/07/01 05:01:06;;;;;;;24.98;22.58;;;15.50;99.90;;;;;;5083238;28;20470;-67
2022/07/01 05:03:32;;;;;;;23.42;20.75;;;15.60;99.90;;;;;;5082815;28;20455;-67
2022/07/01 05:05:58;;;;;;;23.45;20.98;;;15.60;99.90;;;;;;5085056;28;20401;-67
2022/07/01 05:08:23;;;;;;;23.13;20.73;;;15.50;99.90;;;;;;5065418;28;20047;-67
2022/07/01 05:10:49;;;;;;;24.30;21.75;;;15.60;99.90;;;;;;5047770;28;20042;-67
2022/07/01 05:13:15;;;;;;;25.45;21.35;;;15.60;99.90;;;;;;5080860;28;20098;-67
2022/07/01 05:15:40;;;;;;;25.25;22.77;;;15.60;99.90;;;;;;5084118;28;20069;-67
2022/07/01 05:23:35;;;;;;;26.55;22.92;;;15.60;99.90;;;;;;5081518;28;20279;-67
2022/07/01 05:26:01;;;;;;;26.15;23.27;;;15.60;99.90;;;;;;5065191;28;20067;-67
2022/07/01 05:28:27;;;;;;;25.00;22.55;;;15.60;99.90;;;;;;5062391;28;20101;-67
2022/07/01 05:30:53;;;;;;;24.75;22.42;;;15.60;99.90;;;;;;5070803;28;20044;-67
2022/07/01 05:33:21;;;;;;;25.58;23.00;;;15.60;99.90;;;;;;5087501;28;20047;-67
2022/07/01 05:35:49;;;;;;;24.75;22.27;;;15.60;99.90;;;;;;5085099;28;20036;-67
2022/07/01 05:38:15;;;;;;;25.77;23.00;;;15.60;99.90;;;;;;5069741;28;20043;-67
2022/07/01 05:40:40;;;;;;;25.58;23.00;;;15.60;99.90;;;;;;5086741;28;20498;-67
2022/07/01 05:43:06;;;;;;;25.75;23.25;;;15.60;99.90;;;;;;5085488;28;20036;-67
2022/07/01 05:45:32;;;;;;;25.58;22.90;;;15.60;99.90;;;;;;5081872;28;20031;-67
2022/07/01 05:47:57;;;;;;;24.02;21.63;;;15.60;99.90;;;;;;5084544;28;20728;-67
2022/07/01 05:50:24;;;;;;;24.15;21.60;;;15.60;99.90;;;;;;5085845;28;20043;-67
2022/07/01 05:52:49;;;;;;;23.90;21.60;;;15.70;99.90;;;;;;5067091;28;20078;-67
2022/07/01 05:55:15;;;;;;;23.38;21.30;;;15.70;99.90;;;;;;5072566;28;20060;-67
2022/07/01 05:57:41;;;;;;;23.73;21.48;;;15.80;99.90;;;;;;5064727;28;20139;-67
2022/07/01 06:00:09;;;;;;;23.67;21.30;;;15.80;99.90;;;;;;5084151;28;20055;-67
2022/07/01 06:02:35;;;;;;;23.13;20.92;;;15.80;99.90;;;;;;5071239;28;20962;-67
2022/07/01 06:05:01;;;;;;;24.17;21.55;;;15.80;99.90;;;;;;5084142;28;20040;-68
2022/07/01 06:07:27;;;;;;;24.50;21.58;;;15.80;99.90;;;;;;5066118;28;20040;-68
2022/07/01 06:09:52;;;;;;;24.02;21.70;;;15.90;99.90;;;;;;5069806;28;20040;-68
2022/07/01 06:12:18;;;;;;;22.13;19.92;;;15.80;99.90;;;;;;5066612;28;20040;-68
2022/07/01 06:14:43;;;;;;;22.48;20.45;;;15.90;99.90;;;;;;5085709;28;20048;-69
2022/07/01 06:17:09;;;;;;;27.55;22.10;;;15.90;99.90;;;;;;5065096;28;20393;-68
2022/07/01 06:19:35;;;;;;;23.10;20.90;;;15.90;99.90;;;;;;5067577;28;20136;-68
2022/07/01 06:22:01;;;;;;;22.73;20.58;;;16.00;99.90;;;;;;5084934;28;20036;-68
2022/07/01 06:24:26;;;;;;;23.13;20.92;;;15.90;99.90;;;;;;5084120;28;20090;-68
2022/07/01 06:26:52;;;;;;;24.25;21.73;;;16.00;99.90;;;;;;5084133;28;20036;-68
2022/07/01 06:29:17;;;;;;;22.52;20.48;;;16.00;99.90;;;;;;5066899;28;20043;-68
2022/07/01 06:31:43;;;;;;;23.85;21.55;;;16.10;99.90;;;;;;5068577;28;20036;-68
2022/07/01 06:34:09;;;;;;;23.00;20.45;;;16.10;99.90;;;;;;5085632;28;20085;-68
2022/07/01 06:36:34;;;;;;;23.65;21.52;;;16.10;99.90;;;;;;5082772;28;20056;-68
2022/07/01 06:39:00;;;;;;;23.00;20.73;;;16.20;99.90;;;;;;5074986;28;20036;-68
2022/07/01 06:41:26;;;;;;;23.73;21.45;;;16.20;99.90;;;;;;5084960;28;20040;-68
2022/07/01 06:43:53;;;;;;;22.80;20.52;;;16.20;99.90;;;;;;5065512;28;20132;-67
2022/07/01 06:46:19;;;;;;;22.75;20.67;;;16.30;99.90;;;;;;5082870;28;20034;-67
2022/07/01 06:48:44;;;;;;;23.50;21.30;;;16.30;99.90;;;;;;5084344;28;20035;-67
2022/07/01 06:51:10;;;;;;;23.10;20.40;;;16.30;99.90;;;;;;5079151;28;20040;-67
2022/07/01 06:53:35;;;;;;;22.73;20.33;;;16.40;99.90;;;;;;5066762;28;20040;-68
2022/07/01 06:56:01;;;;;;;22.67;20.27;;;16.30;99.90;;;;;;5080537;28;20101;-68
2022/07/01 06:58:27;;;;;;;21.88;19.55;;;16.30;99.90;;;;;;5066169;28;20051;-67
2022/07/01 07:00:52;;;;;;;21.98;19.90;;;16.30;99.90;;;;;;5085779;28;20072;-67
2022/07/01 07:03:18;;;;;;;22.33;20.08;;;16.30;99.90;;;;;;5052625;28;20044;-67
2022/07/01 07:05:44;;;;;;;20.95;19.10;;;16.20;99.90;;;;;;5064013;28;20051;-68
2022/07/01 07:08:09;;;;;;;26.20;20.30;;;16.30;99.90;;;;;;5085881;28;20028;-67
2022/07/01 07:10:35;;;;;;;21.08;18.98;;;16.30;99.90;;;;;;5084287;28;20147;-67
2022/07/01 07:13:00;;;;;;;23.52;19.67;;;16.40;99.90;;;;;;5080914;28;20085;-68
2022/07/01 07:15:29;;;;;;;21.83;19.48;;;16.40;99.90;;;;;;5082441;28;20040;-67
2022/07/01 07:17:57;;;;;;;20.20;18.30;;;16.40;99.90;;;;;;5079438;28;20043;-67
2022/07/01 07:20:26;;;;;;;22.63;19.50;;;16.40;99.90;;;;;;5068021;28;20238;-67
2022/07/01 07:22:52;;;;;;;22.45;18.48;;;16.50;99.90;;;;;;5069457;28;20083;-68
2022/07/01 07:25:18;;;;;;;22.65;19.45;;;16.60;99.90;;;;;;5072364;28;20020;-67
2022/07/01 07:27:46;;;;;;;20.20;17.55;;;16.60;99.90;;;;;;5067438;28;20482;-67
2022/07/01 07:30:14;;;;;;;19.88;17.88;;;16.70;99.90;;;;;;5082408;28;20093;-67
2022/07/01 07:32:40;;;;;;;20.33;18.33;;;16.80;99.90;;;;;;5085603;28;20158;-67
2022/07/01 07:35:06;;;;;;;20.30;17.38;;;17.00;99.90;;;;;;5066502;28;20108;-67
2022/07/01 07:37:33;;;;;;;18.25;16.55;;;17.10;99.90;;;;;;5081705;28;20543;-68
2022/07/01 07:39:59;;;;;;;20.67;18.08;;;17.30;99.90;;;;;;5066888;28;20044;-68
2022/07/01 07:42:25;;;;;;;18.92;17.13;;;17.60;99.90;;;;;;5062200;28;20111;-68
2022/07/01 07:44:50;;;;;;;19.42;17.25;;;17.70;99.90;;;;;;5066752;28;20174;-68
2022/07/01 07:47:16;;;;;;;17.23;15.70;;;17.80;99.90;;;;;;5085823;28;20024;-68
2022/07/01 07:49:42;;;;;;;16.67;14.95;;;17.90;99.90;;;;;;5081477;28;20529;-67
2022/07/01 07:52:08;;;;;;;18.52;15.20;;;18.10;99.90;;;;;;5069487;28;20066;-68
2022/07/01 07:54:33;;;;;;;15.52;14.02;;;18.40;99.90;;;;;;5080189;28;20482;-68
2022/07/01 07:56:59;;;;;;;15.50;14.00;;;18.70;99.90;;;;;;5067888;28;20120;-68
2022/07/01 07:59:25;;;;;;;16.92;14.23;;;18.80;99.90;;;;;;5086891;28;20043;-68
2022/07/01 08:01:50;;;;;;;19.55;14.65;;;18.80;99.90;;;;;;5084070;28;20103;-68
2022/07/01 08:04:16;;;;;;;15.85;14.32;;;18.80;99.90;;;;;;5063630;28;20372;-68
2022/07/01 08:06:41;;;;;;;16.40;14.43;;;18.80;99.90;;;;;;5064728;28;20398;-68
2022/07/01 08:09:07;;;;;;;14.38;12.73;;;18.90;99.90;;;;;;5079416;28;20501;-68
2022/07/01 08:11:33;;;;;;;16.17;13.02;;;18.80;99.90;;;;;;5064377;28;20045;-67
2022/07/01 08:13:58;;;;;;;14.35;13.07;;;18.80;99.90;;;;;;5083879;28;20039;-67
2022/07/01 08:16:24;;;;;;;16.77;14.30;;;18.90;99.90;;;;;;5082139;28;20051;-67
2022/07/01 08:18:50;;;;;;;15.90;13.10;;;18.80;99.90;;;;;;5082092;28;20490;-67
2022/07/01 08:21:16;;;;;;;14.55;13.07;;;19.00;99.90;;;;;;5067808;28;20398;-68
2022/07/01 08:23:41;;;;;;;14.68;13.25;;;19.10;99.90;;;;;;5086833;28;20413;-67
2022/07/01 08:26:07;;;;;;;15.80;12.90;;;19.20;99.90;;;;;;5083654;28;20036;-68
2022/07/01 08:28:32;;;;;;;13.80;12.35;;;19.40;99.90;;;;;;5085314;28;20068;-68
2022/07/01 08:30:58;;;;;;;17.80;12.77;;;19.70;99.90;;;;;;5064843;28;20050;-68
2022/07/01 08:33:24;;;;;;;18.92;13.20;;;19.80;99.90;;;;;;5084496;28;20028;-68
2022/07/01 08:35:49;;;;;;;20.35;13.98;;;19.80;99.90;;;;;;5082106;28;20032;-68
2022/07/01 08:38:15;;;;;;;15.95;12.32;;;19.90;99.90;;;;;;5065204;28;20056;-68
2022/07/01 08:40:41;;;;;;;13.40;12.10;;;19.70;99.90;;;;;;5066055;28;20050;-68
2022/07/01 08:43:07;;;;;;;15.75;12.60;;;19.70;99.90;;;;;;5064015;28;20047;-68
2022/07/01 08:45:37;;;;;;;14.98;13.13;;;19.70;99.90;;;;;;5062571;28;20075;-68
2022/07/01 08:48:03;;;;;;;14.93;11.90;;;20.00;99.90;;;;;;5063099;28;20393;-68
2022/07/01 08:50:31;;;;;;;12.75;11.45;;;20.50;99.90;;;;;;5081431;28;20039;-68
2022/07/01 08:52:58;;;;;;;17.40;11.70;;;20.70;99.90;;;;;;5084265;28;20040;-68
2022/07/01 08:55:24;;;;;;;12.90;10.82;;;20.90;99.90;;;;;;5063177;28;20051;-68
2022/07/01 08:57:50;;;;;;;19.98;13.07;;;20.90;99.90;;;;;;5084381;28;20051;-68
2022/07/01 09:00:16;;;;;;;13.40;9.55;;;21.10;99.90;;;;;;5078255;28;20044;-68
2022/07/01 09:03:00;;;;;;;14.60;9.30;;;21.40;99.90;;;;;;5065062;28;20056;-68
2022/07/01 09:05:27;;;;;;;18.63;9.95;;;21.50;99.90;;;;;;5065444;28;20051;-68
2022/07/01 09:08:04;;;;;;;13.23;9.52;;;21.50;99.90;;;;;;5062124;28;20082;-68
2022/07/01 09:10:33;;;;;;;11.65;8.40;;;21.60;99.90;;;;;;5065224;28;20036;-68
2022/07/01 09:13:07;;;;;;;15.43;9.80;;;21.50;99.90;;;;;;5063585;28;20040;-68
2022/07/01 09:15:34;;;;;;;16.30;8.05;;;21.60;99.90;;;;;;5060770;28;20047;-68
2022/07/01 09:18:18;;;;;;;17.55;8.48;;;21.40;99.90;;;;;;5082047;28;20041;-68
2022/07/01 09:20:48;;;;;;;16.15;8.98;;;21.40;99.90;;;;;;5084716;28;20036;-68
2022/07/01 09:23:17;;;;;;;10.48;7.93;;;21.50;99.90;;;;;;5063294;28;20119;-68
2022/07/01 09:25:45;;;;;;;7.40;6.55;;;21.40;99.90;;;;;;5081088;28;20475;-68
2022/07/01 09:28:13;;;;;;;12.88;8.52;;;21.60;99.90;;;;;;5069662;28;20118;-68
2022/07/01 09:30:40;;;;;;;16.23;9.18;;;21.70;99.90;;;;;;5080219;28;20469;-68
2022/07/01 09:33:17;;;;;;;12.27;8.18;;;21.50;99.90;;;;;;5064203;28;20051;-68
2022/07/01 09:35:45;;;;;;;11.90;8.07;;;21.40;99.90;;;;;;5077159;28;20040;-68
2022/07/01 09:38:13;;;;;;;13.35;8.80;;;21.40;99.90;;;;;;5076791;28;20040;-68
2022/07/01 09:41:00;;;;;;;11.98;9.00;;;21.50;99.90;;;;;;5083054;28;20032;-68
2022/07/01 09:43:34;;;;;;;12.93;8.82;;;21.60;99.90;;;;;;5085239;28;20040;-68
2022/07/01 09:46:08;;;;;;;7.67;6.13;;;21.40;99.90;;;;;;5078818;28;20080;-68
2022/07/01 09:48:34;;;;;;;8.25;5.32;;;21.10;99.90;;;;;;5062799;28;20040;-68
2022/07/01 09:51:01;;;;;;;9.73;5.20;;;21.20;99.90;;;;;;5064486;28;20509;-68
2022/07/01 09:53:26;;;;;;;6.22;4.50;;;21.50;99.90;;;;;;5083290;28;20566;-68
2022/07/01 09:55:53;;;;;;;6.72;4.18;;;21.90;99.90;;;;;;5060761;28;20071;-68
2022/07/01 09:58:19;;;;;;;8.32;3.67;;;22.00;99.90;;;;;;5084292;28;20082;-68
2022/07/01 10:00:44;;;;;;;8.25;2.78;;;22.10;99.90;;;;;;5068588;28;20393;-68
2022/07/01 10:03:11;;;;;;;4.20;2.03;;;22.10;99.90;;;;;;5080750;28;20040;-68
2022/07/01 10:05:47;;;;;;;5.63;2.40;;;22.20;99.90;;;;;;5064876;28;20399;-68
2022/07/01 10:08:24;;;;;;;4.72;2.20;;;22.20;99.90;;;;;;5079938;28;20058;-68
2022/07/01 10:11:14;;;;;;;4.95;2.78;;;22.30;99.90;;;;;;5085714;28;20063;-68
2022/07/01 10:13:41;;;;;;;4.55;2.70;;;22.50;99.90;;;;;;5080321;28;20410;-68
2022/07/01 10:16:11;;;;;;;5.68;3.53;;;22.50;99.90;;;;;;5080189;28;20511;-68
2022/07/01 10:18:37;;;;;;;9.65;3.92;;;22.40;99.90;;;;;;5063488;28;20147;-68
2022/07/01 10:21:04;;;;;;;6.97;3.03;;;22.40;99.90;;;;;;5079967;28;20138;-68
2022/07/01 10:23:43;;;;;;;6.65;2.83;;;22.20;99.90;;;;;;5081632;28;20120;-68
2022/07/01 10:26:11;;;;;;;6.10;3.22;;;22.10;99.90;;;;;;5080446;28;20028;-68
2022/07/01 10:28:41;;;;;;;8.90;3.10;;;22.30;99.90;;;;;;5048166;28;20048;-68
2022/07/01 10:31:13;;;;;;;6.93;2.72;;;22.40;99.90;;;;;;5081758;28;20032;-68
2022/07/01 10:33:42;;;;;;;6.05;2.92;;;22.50;99.90;;;;;;5080027;28;20075;-68
2022/07/01 10:36:08;;;;;;;9.70;3.10;;;22.60;99.90;;;;;;5083137;28;20093;-68
2022/07/01 10:38:34;;;;;;;10.07;3.15;;;22.80;99.90;;;;;;5067510;28;20147;-68
2022/07/01 10:41:09;;;;;;;5.63;2.47;;;22.90;99.90;;;;;;5085698;28;20042;-68
2022/07/01 10:43:36;;;;;;;;;;;22.70;99.90;;;;;;5062974;28;20086;-68
2022/07/01 10:46:02;;;;;;;6.50;2.90;;;22.30;99.90;;;;;;5084545;28;19981;-68
2022/07/01 10:48:31;;;;;;;10.43;2.13;;;22.20;99.90;;;;;;5066459;28;20505;-68
2022/07/01 10:50:56;;;;;;;5.97;2.75;;;22.20;99.90;;;;;;5068435;28;20059;-68
2022/07/01 10:53:22;;;;;;;5.65;2.60;;;22.20;99.90;;;;;;5086758;28;20393;-68
2022/07/01 10:55:53;;;;;;;4.75;2.03;;;22.30;99.90;;;;;;5060741;28;20036;-68
2022/07/01 10:58:35;;;;;;;5.28;2.33;;;22.60;99.90;;;;;;5084033;28;20898;-68
2022/07/01 11:01:01;;;;;;;5.30;1.80;;;22.90;99.90;;;;;;5083454;28;20372;-68
2022/07/01 11:03:26;;;;;;;5.05;1.50;;;23.20;99.90;;;;;;5061691;28;20039;-68
2022/07/01 11:05:55;;;;;;;4.72;2.20;;;23.30;99.90;;;;;;5055990;28;20695;-68
2022/07/01 11:08:21;;;;;;;10.13;1.70;;;23.50;99.90;;;;;;5067164;28;20045;-68
2022/07/01 11:10:51;;;;;;;6.85;1.73;;;23.50;99.90;;;;;;5083929;28;20032;-68
2022/07/01 11:13:18;;;;;;;2.78;0.95;;;23.30;99.90;;;;;;5065390;28;20092;-68
2022/07/01 11:15:47;;;;;;;4.18;1.00;;;23.20;99.90;;;;;;5083983;28;20133;-68
2022/07/01 11:18:15;;;;;;;10.38;1.98;;;23.30;99.90;;;;;;5079037;28;20081;-68
2022/07/01 11:20:41;;;;;;;4.15;1.00;;;23.60;99.90;;;;;;5081344;28;20064;-68
2022/07/01 11:23:07;;;;;;;6.78;1.10;;;23.50;99.90;;;;;;5067396;28;20063;-68
2022/07/01 11:25:33;;;;;;;2.22;0.60;;;23.40;99.90;;;;;;5064256;28;20028;-68
2022/07/01 11:27:58;;;;;;;4.82;0.80;;;23.40;99.90;;;;;;5071276;28;20579;-68
2022/07/01 11:30:24;;;;;;;5.75;1.42;;;23.60;99.90;;;;;;5080909;28;20117;-68
2022/07/01 11:32:56;;;;;;;6.18;1.10;;;23.50;99.90;;;;;;5065407;28;20035;-68
2022/07/01 11:41:06;;;;;;;5.15;0.65;;;22.70;99.90;;;;;;5063524;28;20036;-68
2022/07/01 11:43:34;;;;;;;5.28;0.93;;;22.40;99.90;;;;;;5063519;28;20052;-68
2022/07/01 11:46:02;;;;;;;5.22;1.00;;;22.20;99.90;;;;;;5063635;28;20070;-68
2022/07/01 11:48:52;;;;;;;2.88;0.70;;;22.00;99.90;;;;;;5084308;28;20497;-68
2022/07/01 11:54:54;;;;;;;3.63;0.80;;;22.00;99.90;;;;;;5079291;28;20084;-68
2022/07/01 11:57:21;;;;;;;2.75;0.50;;;21.90;99.90;;;;;;5063083;28;20040;-68
2022/07/01 11:59:48;;;;;;;3.30;0.55;;;21.80;99.90;;;;;;5066605;28;20040;-67
2022/07/01 12:02:17;;;;;;;3.58;0.70;;;21.80;99.90;;;;;;5084767;28;20374;-68
2022/07/01 12:04:44;;;;;;;3.85;0.85;;;21.70;99.90;;;;;;5081636;28;20055;-68
2022/07/01 12:07:11;;;;;;;3.80;1.40;;;21.60;99.90;;;;;;5081115;28;20032;-68
2022/07/01 12:09:37;;;;;;;2.75;0.70;;;21.40;99.90;;;;;;5083028;28;20036;-68
2022/07/01 12:12:03;;;;;;;3.97;0.60;;;21.20;99.90;;;;;;5069921;28;20113;-68
2022/07/01 12:14:33;;;;;;;6.07;1.05;;;21.10;99.90;;;;;;5061785;28;20071;-68
2022/07/01 12:17:00;;;;;;;3.28;0.73;;;21.00;99.90;;;;;;5066190;28;20127;-67
2022/07/01 12:19:28;;;;;;;4.80;0.50;;;21.00;99.90;;;;;;5062398;28;20043;-68
2022/07/01 12:21:58;;;;;;;2.05;0.40;;;21.00;99.90;;;;;;5082379;28;20513;-68
2022/07/01 12:24:24;;;;;;;7.70;1.10;;;21.10;99.90;;;;;;5083087;28;20036;-68
2022/07/01 12:26:58;;;;;;;2.47;0.50;;;21.10;99.90;;;;;;5081205;28;20024;-68
2022/07/01 12:29:27;;;;;;;5.83;0.70;;;21.20;99.90;;;;;;5081457;28;20040;-68
2022/07/01 12:32:01;;;;;;;4.30;1.20;;;21.20;99.90;;;;;;5082992;28;20098;-68
2022/07/01 12:34:45;;;;;;;5.97;0.98;;;21.30;99.90;;;;;;5079039;28;20089;-68
2022/07/01 12:37:20;;;;;;;4.10;0.70;;;21.60;99.90;;;;;;5063189;28;20083;-67
2022/07/01 12:39:56;;;;;;;3.40;1.13;;;21.80;99.90;;;;;;5064936;28;20052;-68
2022/07/01 12:42:33;;;;;;;2.83;0.57;;;22.10;99.90;;;;;;5066186;28;20067;-68
2022/07/01 12:45:04;;;;;;;4.55;0.70;;;22.40;99.90;;;;;;5069921;28;20050;-68
2022/07/01 12:47:33;;;;;;;3.20;0.70;;;22.50;99.90;;;;;;5083279;28;20032;-68
2022/07/01 12:50:21;;;;;;;6.85;1.20;;;22.60;99.90;;;;;;5081744;28;20058;-68
2022/07/01 12:53:05;;;;;;;3.53;0.50;;;22.70;99.90;;;;;;5064906;28;20070;-68
2022/07/01 12:55:42;;;;;;;3.75;0.43;;;22.50;99.90;;;;;;5083360;28;20399;-68
2022/07/01 12:58:14;;;;;;;2.40;0.40;;;22.20;99.90;;;;;;5064781;28;20074;-68
2022/07/01 13:00:42;;;;;;;3.40;0.50;;;22.10;99.90;;;;;;5060472;28;20048;-68
2022/07/01 13:03:08;;;;;;;2.55;0.47;;;22.30;99.90;;;;;;5082331;28;20104;-68
2022/07/01 13:05:36;;;;;;;1.40;0.30;;;22.40;99.90;;;;;;5063106;28;20040;-68